Time;durP1;ratioP1;P1;durP2;ratioP2;P2;SDS_P1;SDS_P2;PMS_P1;PMS_P2;Temp;Humidity;BMP_temperature;BMP_pressure;BME280_temperature;BME280_humidity;BME280_pressure;Samples;Min_cycle;Max_cycle;Signal;HPM_P1;HPM_P2
2023/02/22 00:00:22;;;;;;;7.18;4.05;;;;;;;1.93;100.00;95744.00;1038668;28;20020;-70
2023/02/22 00:00:55;;;;;;;8.57;4.47;;;;;;;1.94;100.00;95747.38;1033426;28;20076;-69
2023/02/22 00:01:34;;;;;;;6.47;4.05;;;;;;;1.94;100.00;95757.72;1030416;28;20348;-68
2023/02/22 00:02:12;;;;;;;5.50;3.85;;;;;;;1.90;100.00;95752.19;1030609;28;20272;-69
2023/02/22 00:02:43;;;;;;;11.07;4.75;;;;;;;1.89;100.00;95753.97;1034539;28;20257;-68
2023/02/22 00:03:26;;;;;;;8.52;3.83;;;;;;;1.84;100.00;95747.81;1037147;28;20395;-69
2023/02/22 00:03:57;;;;;;;10.75;4.30;;;;;;;1.87;100.00;95755.19;1034611;28;20260;-69
2023/02/22 00:04:47;;;;;;;5.68;4.10;;;;;;;1.83;100.00;95746.25;1045762;28;20872;-70
2023/02/22 00:05:23;;;;;;;6.53;4.10;;;;;;;1.82;100.00;95757.59;1037974;28;20026;-69
2023/02/22 00:05:57;;;;;;;6.55;4.07;;;;;;;1.79;100.00;95751.03;1033968;28;20728;-68
2023/02/22 00:06:28;;;;;;;7.65;4.50;;;;;;;1.74;100.00;95747.47;1030168;28;20258;-69
2023/02/22 00:07:00;;;;;;;8.30;4.15;;;;;;;1.77;100.00;95747.84;1034441;28;20265;-69
2023/02/22 00:07:30;;;;;;;6.70;4.13;;;;;;;1.75;100.00;95749.09;1033862;28;20377;-69
2023/02/22 00:08:01;;;;;;;11.00;4.40;;;;;;;1.73;100.00;95751.06;1035012;28;20437;-69
2023/02/22 00:08:33;;;;;;;7.18;3.80;;;;;;;1.67;100.00;95746.72;1037981;28;20037;-70
2023/02/22 00:09:05;;;;;;;6.82;3.53;;;;;;;1.69;100.00;95744.75;1030116;28;20030;-68
2023/02/22 00:09:35;;;;;;;9.65;4.72;;;;;;;1.63;100.00;95747.13;1029409;28;20742;-69
2023/02/22 00:10:12;;;;;;;8.40;4.18;;;;;;;1.68;100.00;95748.31;1029793;28;20270;-69
2023/02/22 00:10:43;;;;;;;7.64;4.66;;;;;;;1.61;100.00;95738.81;1032250;28;20046;-69
2023/02/22 00:11:13;;;;;;;9.48;4.24;;;;;;;1.66;100.00;95745.94;1034076;28;20053;-70
2023/02/22 00:11:46;;;;;;;9.13;4.20;;;;;;;1.63;100.00;95747.13;1030813;28;20042;-71
2023/02/22 00:12:16;;;;;;;8.60;4.28;;;;;;;1.62;100.00;95742.19;1029934;28;20538;-70
2023/02/22 00:12:47;;;;;;;7.32;4.07;;;;;;;1.64;100.00;95748.75;1033898;28;20249;-68
2023/02/22 00:13:18;;;;;;;6.60;4.05;;;;;;;1.63;100.00;95746.34;1030639;28;20014;-69
2023/02/22 00:13:49;;;;;;;8.25;4.18;;;;;;;1.63;100.00;95747.13;1029892;28;20274;-69
2023/02/22 00:14:19;;;;;;;8.20;4.38;;;;;;;1.59;100.00;95740.78;1030044;28;20027;-71
2023/02/22 00:14:50;;;;;;;6.05;3.90;;;;;;;1.55;100.00;95737.03;1034152;28;20026;-69
2023/02/22 00:15:26;;;;;;;8.13;4.40;;;;;;;1.55;100.00;95737.03;1021627;28;20023;-69
2023/02/22 00:15:57;;;;;;;13.15;5.55;;;;;;;1.62;100.00;95744.78;1030056;28;20018;-69
2023/02/22 00:16:27;;;;;;;9.75;4.60;;;;;;;1.64;100.00;95740.16;1025886;28;20306;-69
2023/02/22 00:16:58;;;;;;;6.70;4.45;;;;;;;1.64;100.00;95738.41;1025761;28;20030;-69
2023/02/22 00:17:29;;;;;;;8.95;5.00;;;;;;;1.73;100.00;95740.72;1025869;28;20027;-69
2023/02/22 00:18:00;;;;;;;7.72;4.63;;;;;;;1.67;100.00;95736.38;1029943;28;20413;-69
2023/02/22 00:18:30;;;;;;;8.48;4.65;;;;;;;1.77;100.00;95736.72;1031438;28;20019;-70
2023/02/22 00:19:01;;;;;;;5.63;4.13;;;;;;;1.85;100.00;95744.25;1029817;28;20034;-69
2023/02/22 00:19:31;;;;;;;8.75;4.10;;;;;;;1.88;100.00;95744.63;1025139;28;20042;-72
2023/02/22 00:20:05;;;;;;;9.82;4.97;;;;;;;1.85;100.00;95733.91;1025823;28;20514;-68
2023/02/22 00:20:38;;;;;;;7.32;4.44;;;;;;;1.85;100.00;95736.50;1026827;28;20110;-69
2023/02/22 00:21:09;;;;;;;7.60;4.40;;;;;;;1.93;100.00;95741.41;1030647;28;20018;-69
2023/02/22 00:21:39;;;;;;;7.30;4.22;;;;;;;1.92;100.00;95739.84;1031080;28;20851;-69
2023/02/22 00:22:10;;;;;;;9.07;4.60;;;;;;;1.92;100.00;95752.78;1028649;28;20261;-72
2023/02/22 00:22:42;;;;;;;11.88;4.78;;;;;;;1.89;100.00;95740.25;1030451;28;20023;-69
2023/02/22 00:23:20;;;;;;;6.82;4.50;;;;;;;1.85;100.00;95739.09;1029721;28;20110;-69
2023/02/22 00:23:53;;;;;;;6.72;4.55;;;;;;;1.86;100.00;95740.66;1023488;28;20379;-69
2023/02/22 00:24:23;;;;;;;9.95;4.80;;;;;;;1.85;100.00;95742.47;1027352;28;20255;-68
2023/02/22 00:24:56;;;;;;;5.93;4.03;;;;;;;1.80;100.00;95736.31;1025784;28;20262;-69
2023/02/22 00:25:26;;;;;;;6.90;3.67;;;;;;;1.81;100.00;95743.06;1029879;28;20102;-69
2023/02/22 00:25:57;;;;;;;6.15;4.13;;;;;;;1.74;100.00;95737.13;1026151;28;20259;-69
2023/02/22 00:26:28;;;;;;;8.23;4.15;;;;;;;1.78;100.00;95748.69;1033861;28;20015;-69
2023/02/22 00:26:58;;;;;;;10.23;5.03;;;;;;;1.75;100.00;95744.72;1026095;28;20807;-69
2023/02/22 00:27:29;;;;;;;8.63;4.75;;;;;;;1.71;100.00;95734.97;1026206;28;20025;-69
2023/02/22 00:28:00;;;;;;;8.18;4.15;;;;;;;1.67;100.00;95737.16;1021738;28;20592;-69
2023/02/22 00:28:30;;;;;;;7.88;4.20;;;;;;;1.67;100.00;95733.78;1026225;28;20102;-69
2023/02/22 00:29:01;;;;;;;6.68;4.25;;;;;;;1.68;100.00;95743.13;1025717;28;20015;-69
2023/02/22 00:29:33;;;;;;;9.30;4.60;;;;;;;1.70;100.00;95746.31;1025321;28;20122;-72
2023/02/22 00:30:04;;;;;;;6.00;3.90;;;;;;;1.68;100.00;95738.78;1029757;28;20015;-69
2023/02/22 00:30:35;;;;;;;7.45;4.15;;;;;;;1.67;100.00;95742.34;1029622;28;20982;-69
2023/02/22 00:31:05;;;;;;;9.10;4.25;;;;;;;1.67;100.00;95746.72;1026848;28;20258;-69
2023/02/22 00:31:36;;;;;;;8.20;4.22;;;;;;;1.66;100.00;95745.94;1029717;28;20019;-67
2023/02/22 00:32:07;;;;;;;10.48;4.50;;;;;;;1.67;100.00;95747.50;1027382;28;20023;-69
2023/02/22 00:32:37;;;;;;;6.57;4.18;;;;;;;1.65;100.00;95745.16;1029986;28;21018;-69
2023/02/22 00:33:08;;;;;;;8.55;4.57;;;;;;;1.64;100.00;95743.56;1029926;28;20026;-69
2023/02/22 00:33:39;;;;;;;7.10;4.60;;;;;;;1.64;100.00;95747.91;1030201;28;20062;-68
2023/02/22 00:34:09;;;;;;;8.18;4.18;;;;;;;1.61;100.00;95743.97;1029712;28;20349;-69
2023/02/22 00:34:42;;;;;;;7.13;4.35;;;;;;;1.64;100.00;95745.34;1033666;28;20022;-71
2023/02/22 00:35:14;;;;;;;9.27;4.20;;;;;;;1.62;100.00;95744.78;1030042;28;20026;-68
2023/02/22 00:35:44;;;;;;;7.74;4.58;;;;;;;1.62;100.00;95745.56;1033210;28;21065;-71
2023/02/22 00:36:15;;;;;;;5.95;4.15;;;;;;;1.62;100.00;95745.56;1030363;28;20027;-69
2023/02/22 00:36:48;;;;;;;8.73;5.35;;;;;;;1.62;100.00;95745.56;1026402;28;20034;-69
2023/02/22 00:37:19;;;;;;;8.10;4.82;;;;;;;1.58;100.00;95735.84;1032040;28;20011;-69
2023/02/22 00:37:51;;;;;;;6.32;4.32;;;;;;;1.57;100.00;95740.19;1026012;28;20035;-70
2023/02/22 00:38:21;;;;;;;9.65;5.10;;;;;;;1.64;100.00;95750.50;1025892;28;20613;-69
2023/02/22 00:38:52;;;;;;;8.30;4.40;;;;;;;1.67;100.00;95749.31;1033601;28;20328;-68
2023/02/22 00:39:22;;;;;;;9.65;4.68;;;;;;;1.62;100.00;95735.22;1029477;28;20428;-70
2023/02/22 00:39:53;;;;;;;7.85;5.05;;;;;;;1.68;100.00;95743.94;1025603;28;20151;-68
2023/02/22 00:40:26;;;;;;;7.88;4.70;;;;;;;1.75;100.00;95747.28;1025874;28;20501;-71
2023/02/22 00:40:56;;;;;;;6.72;4.43;;;;;;;1.77;100.00;95747.06;1029513;28;20042;-70
2023/02/22 00:41:27;;;;;;;9.60;4.55;;;;;;;1.79;100.00;95747.66;1034008;28;20269;-69
2023/02/22 00:41:57;;;;;;;8.05;4.57;;;;;;;1.80;100.00;95754.44;1026359;28;20027;-69
2023/02/22 00:42:28;;;;;;;7.70;4.28;;;;;;;1.80;100.00;95752.63;1028368;28;20022;-68
2023/02/22 00:43:03;;;;;;;9.13;4.70;;;;;;;1.78;100.00;95744.28;1025626;28;20051;-69
2023/02/22 00:43:33;;;;;;;7.07;4.40;;;;;;;1.81;100.00;95749.06;1026757;28;20497;-69
2023/02/22 00:44:04;;;;;;;8.25;4.90;;;;;;;1.81;100.00;95745.66;1033068;28;20273;-69
2023/02/22 00:44:34;;;;;;;8.40;4.78;;;;;;;1.80;100.00;95751.84;1038774;28;20414;-69
2023/02/22 00:45:06;;;;;;;10.82;4.82;;;;;;;1.80;100.00;95749.25;1037657;28;20022;-69
2023/02/22 00:45:36;;;;;;;8.02;4.55;;;;;;;1.78;100.00;95746.88;1030270;28;20525;-69
2023/02/22 00:46:06;;;;;;;7.70;4.53;;;;;;;1.72;100.00;95744.31;1034141;28;20265;-70
2023/02/22 00:46:37;;;;;;;7.82;4.93;;;;;;;1.75;100.00;95749.88;1025962;28;20023;-69
2023/02/22 00:47:08;;;;;;;7.72;4.72;;;;;;;1.75;100.00;95749.09;1025768;28;20014;-70
2023/02/22 00:47:38;;;;;;;7.60;3.90;;;;;;;1.66;100.00;95745.94;1025858;28;20019;-69
2023/02/22 00:48:09;;;;;;;7.18;4.30;;;;;;;1.59;100.00;95732.25;1021976;28;20773;-70
2023/02/22 00:48:39;;;;;;;6.43;4.18;;;;;;;1.61;100.00;95738.81;1030065;28;20026;-69
2023/02/22 00:49:09;;;;;;;8.25;4.38;;;;;;;1.65;100.00;95750.31;1029795;28;20440;-69
2023/02/22 00:49:40;;;;;;;10.00;4.28;;;;;;;1.62;100.00;95742.19;1030704;28;20026;-70
2023/02/22 00:50:10;;;;;;;9.85;3.95;;;;;;;1.60;100.00;95747.53;1026007;28;20388;-70
2023/02/22 00:50:41;;;;;;;7.00;4.63;;;;;;;1.49;100.00;95740.44;1025741;28;20023;-68
2023/02/22 00:51:11;;;;;;;6.45;4.38;;;;;;;1.49;100.00;95734.47;1025596;28;20046;-69
2023/02/22 00:51:42;;;;;;;8.45;4.68;;;;;;;1.53;100.00;95748.56;1025952;28;20030;-69
2023/02/22 00:52:12;;;;;;;11.30;5.13;;;;;;;1.50;100.00;95742.03;1025726;28;20019;-68
2023/02/22 00:52:43;;;;;;;8.32;4.75;;;;;;;1.49;100.00;95750.78;1021887;29;20537;-69
2023/02/22 00:53:14;;;;;;;9.23;4.32;;;;;;;1.48;100.00;95753.59;1025576;28;20023;-69
2023/02/22 00:53:44;;;;;;;7.22;4.30;;;;;;;1.41;100.00;95749.22;1025724;28;20015;-70
2023/02/22 00:54:18;;;;;;;6.18;4.20;;;;;;;1.38;100.00;95749.63;1025866;28;20056;-70
2023/02/22 00:54:49;;;;;;;11.14;4.24;;;;;;;1.34;100.00;95742.47;1026818;28;20058;-71
2023/02/22 00:55:22;;;;;;;11.50;4.97;;;;;;;1.37;100.00;95750.59;1030129;28;20022;-69
2023/02/22 00:55:52;;;;;;;12.23;4.68;;;;;;;1.31;100.00;95740.31;1027299;28;20078;-68
2023/02/22 00:56:23;;;;;;;11.50;4.78;;;;;;;1.09;100.00;95701.03;1029665;28;20249;-68
2023/02/22 00:56:53;;;;;;;7.78;4.30;;;;;;;1.33;100.00;95740.91;1025960;28;20015;-69
2023/02/22 00:57:23;;;;;;;9.45;5.10;;;;;;;1.33;100.00;95740.91;1025675;28;20118;-69
2023/02/22 00:57:57;;;;;;;10.50;5.10;;;;;;;1.34;100.00;95747.66;1033645;28;20030;-69
2023/02/22 00:58:27;;;;;;;8.32;4.44;;;;;;;1.26;100.00;95740.91;1030376;28;20018;-69
2023/02/22 00:58:58;;;;;;;8.50;4.82;;;;;;;1.23;100.00;95728.41;1033708;28;20030;-69
2023/02/22 00:59:29;;;;;;;8.00;4.90;;;;;;;1.30;100.00;95741.31;1033009;28;20022;-69
2023/02/22 01:00:10;;;;;;;8.40;4.32;;;;;;;1.25;100.00;95728.22;1029533;28;20540;-71
2023/02/22 01:00:41;;;;;;;8.60;4.82;;;;;;;1.29;100.00;95743.09;1029708;28;21104;-69
2023/02/22 01:01:12;;;;;;;8.02;4.30;;;;;;;1.24;100.00;95729.19;1033857;28;20160;-69
2023/02/22 01:01:42;;;;;;;8.48;4.60;;;;;;;1.29;100.00;95745.69;1029471;28;20081;-69
2023/02/22 01:02:13;;;;;;;9.25;4.65;;;;;;;1.24;100.00;95731.78;1029674;28;20037;-68
2023/02/22 01:02:43;;;;;;;9.52;4.53;;;;;;;1.30;100.00;95741.31;1029834;28;20108;-69
2023/02/22 01:03:18;;;;;;;7.90;4.57;;;;;;;1.27;100.00;95742.50;1029542;28;20392;-69
2023/02/22 01:03:49;;;;;;;8.70;4.80;;;;;;;1.26;100.00;95740.91;1030423;28;20019;-70
2023/02/22 01:04:19;;;;;;;6.55;4.10;;;;;;;1.24;100.00;95742.09;1030085;28;20219;-69
2023/02/22 01:04:50;;;;;;;8.40;4.95;;;;;;;1.23;100.00;95740.53;1030386;28;20085;-70
2023/02/22 01:05:22;;;;;;;8.07;4.75;;;;;;;1.24;100.00;95739.53;1029842;28;20022;-69
2023/02/22 01:05:52;;;;;;;9.18;4.97;;;;;;;1.23;100.00;95735.38;1029830;28;20086;-69
2023/02/22 01:06:23;;;;;;;8.80;4.63;;;;;;;1.22;100.00;95732.00;1035035;28;20273;-69
2023/02/22 01:06:54;;;;;;;7.50;4.45;;;;;;;1.18;100.00;95734.19;1034345;28;20507;-68
2023/02/22 01:07:24;;;;;;;6.45;4.50;;;;;;;1.12;100.00;95724.66;1032796;28;20085;-69
2023/02/22 01:07:56;;;;;;;8.50;5.00;;;;;;;1.13;100.00;95730.63;1029758;28;20320;-70
2023/02/22 01:08:29;;;;;;;7.90;4.82;;;;;;;1.13;100.00;95734.00;1027753;28;20022;-71
2023/02/22 01:09:01;;;;;;;21.05;5.05;;;;;;;1.18;100.00;95738.56;1026024;28;20034;-70
2023/02/22 01:09:31;;;;;;;13.60;4.88;;;;;;;1.14;100.00;95735.59;1025662;28;20377;-71
2023/02/22 01:10:02;;;;;;;9.85;4.28;;;;;;;1.13;100.00;95731.41;1030175;28;20031;-70
2023/02/22 01:10:32;;;;;;;9.60;4.95;;;;;;;1.10;100.00;95726.63;1034114;28;20109;-69
2023/02/22 01:11:03;;;;;;;10.10;4.15;;;;;;;1.18;100.00;95739.34;1038110;28;20017;-69
2023/02/22 01:11:33;;;;;;;9.32;4.88;;;;;;;1.11;100.00;95728.25;1037681;28;20549;-69
2023/02/22 01:12:04;;;;;;;7.20;4.97;;;;;;;1.16;100.00;95732.78;1033671;28;20046;-69
2023/02/22 01:12:34;;;;;;;8.43;4.57;;;;;;;1.07;100.00;95726.25;1029728;28;20101;-69
2023/02/22 01:13:07;;;;;;;10.20;4.80;;;;;;;1.16;100.00;95740.53;1037924;28;20573;-69
2023/02/22 01:13:37;;;;;;;7.72;4.48;;;;;;;1.12;100.00;95740.16;1034224;28;20030;-70
2023/02/22 01:14:08;;;;;;;8.20;4.78;;;;;;;1.14;100.00;95738.19;1021858;28;20035;-69
2023/02/22 01:14:39;;;;;;;7.20;4.82;;;;;;;1.14;100.00;95743.34;1025993;28;20769;-69
2023/02/22 01:15:10;;;;;;;8.75;4.45;;;;;;;1.14;100.00;95740.75;1027344;28;20030;-70
2023/02/22 01:15:41;;;;;;;7.35;4.65;;;;;;;1.14;100.00;95733.00;1033544;28;20021;-70
2023/02/22 01:16:11;;;;;;;13.08;4.88;;;;;;;1.13;100.00;95738.38;1022644;28;20046;-70
2023/02/22 01:16:43;;;;;;;6.15;4.22;;;;;;;1.13;100.00;95736.56;1026859;28;20490;-70
2023/02/22 01:17:13;;;;;;;12.24;4.98;;;;;;;1.10;100.00;95731.03;1026607;28;20021;-69
2023/02/22 01:17:44;;;;;;;9.77;5.05;;;;;;;1.13;100.00;95734.00;1019985;28;20058;-70
2023/02/22 01:18:16;;;;;;;6.75;4.28;;;;;;;0.99;100.00;95711.00;1023143;28;20584;-71
2023/02/22 01:18:46;;;;;;;8.07;5.22;;;;;;;1.13;100.00;95736.56;1030495;28;20030;-70
2023/02/22 01:19:16;;;;;;;10.38;5.07;;;;;;;1.08;100.00;95733.81;1030672;28;20269;-70
2023/02/22 01:19:47;;;;;;;7.72;4.60;;;;;;;1.12;100.00;95735.00;1031156;28;20691;-70
2023/02/22 01:20:18;;;;;;;10.57;4.88;;;;;;;1.06;100.00;95730.63;1032526;28;20014;-70
2023/02/22 01:20:48;;;;;;;8.85;4.65;;;;;;;1.05;100.00;95726.47;1022923;29;20027;-70
2023/02/22 01:21:19;;;;;;;11.02;5.40;;;;;;;1.10;100.00;95731.81;1022934;29;20034;-70
2023/02/22 01:21:49;;;;;;;7.28;4.20;;;;;;;1.09;100.00;95732.03;1022942;28;20063;-70
2023/02/22 01:22:20;;;;;;;12.95;5.20;;;;;;;1.11;100.00;95732.63;1017539;28;20591;-71
2023/02/22 01:22:52;;;;;;;6.63;4.25;;;;;;;1.08;100.00;95733.81;1027243;28;20014;-69
2023/02/22 01:23:23;;;;;;;7.96;4.22;;;;;;;1.03;100.00;95723.28;1031082;28;20106;-70
2023/02/22 01:23:53;;;;;;;10.25;4.90;;;;;;;1.06;100.00;95727.25;1023475;28;20027;-69
2023/02/22 01:24:24;;;;;;;8.07;5.25;;;;;;;0.99;100.00;95721.31;1026726;28;20087;-70
2023/02/22 01:24:54;;;;;;;8.98;4.68;;;;;;;1.03;100.00;95725.06;1026824;28;20058;-69
2023/02/22 01:25:27;;;;;;;7.30;4.82;;;;;;;1.03;100.00;95725.06;1030925;28;20038;-70
2023/02/22 01:25:58;;;;;;;9.64;4.86;;;;;;;1.02;100.00;95728.66;1030797;28;20622;-70
2023/02/22 01:26:28;;;;;;;6.88;4.60;;;;;;;0.96;100.00;95719.94;1031309;28;20057;-70
2023/02/22 01:27:00;;;;;;;7.57;5.20;;;;;;;0.97;100.00;95716.34;1031003;28;20391;-70
2023/02/22 01:27:31;;;;;;;9.02;5.26;;;;;;;1.02;100.00;95732.03;1023287;28;20019;-70
2023/02/22 01:28:02;;;;;;;8.27;4.57;;;;;;;1.00;100.00;95730.66;1027215;28;20026;-69
2023/02/22 01:28:32;;;;;;;9.23;5.00;;;;;;;0.99;100.00;95723.91;1027054;28;20026;-69
2023/02/22 01:29:03;;;;;;;10.90;4.95;;;;;;;1.02;100.00;95721.72;1023802;28;20147;-69
2023/02/22 01:29:33;;;;;;;11.98;4.80;;;;;;;1.00;100.00;95723.69;1026326;28;20022;-69
2023/02/22 01:30:07;;;;;;;8.93;5.18;;;;;;;1.00;100.00;95726.28;1026907;28;20054;-69
2023/02/22 01:30:38;;;;;;;7.48;4.86;;;;;;;1.00;100.00;95723.69;1023872;28;20053;-72
2023/02/22 01:31:09;;;;;;;7.35;4.90;;;;;;;0.98;100.00;95720.53;1031578;28;20033;-70
2023/02/22 01:31:42;;;;;;;7.63;4.90;;;;;;;0.95;100.00;95713.19;1031524;28;20038;-70
2023/02/22 01:32:13;;;;;;;7.96;4.56;;;;;;;1.01;100.00;95721.94;1027735;28;20022;-69
2023/02/22 01:32:44;;;;;;;11.55;5.20;;;;;;;0.98;100.00;95717.94;1030861;28;20038;-70
2023/02/22 01:33:14;;;;;;;5.95;4.20;;;;;;;1.01;100.00;95719.34;1031521;28;20019;-71
2023/02/22 01:33:45;;;;;;;7.95;4.93;;;;;;;0.98;100.00;95715.38;1031258;28;20456;-70
2023/02/22 01:34:16;;;;;;;9.38;5.35;;;;;;;0.97;100.00;95705.22;1030664;28;20030;-69
2023/02/22 01:34:46;;;;;;;9.78;5.20;;;;;;;0.96;100.00;95709.59;1030973;28;20030;-70
2023/02/22 01:35:20;;;;;;;7.53;4.72;;;;;;;0.97;100.00;95711.16;1030703;28;20030;-70
2023/02/22 01:35:51;;;;;;;11.78;4.60;;;;;;;1.01;100.00;95712.38;1031563;28;20083;-70
2023/02/22 01:36:21;;;;;;;9.10;5.28;;;;;;;0.99;100.00;95714.34;1030568;28;20072;-70
2023/02/22 01:36:52;;;;;;;9.85;4.80;;;;;;;0.94;100.00;95704.66;1023394;28;20064;-69
2023/02/22 01:37:22;;;;;;;6.43;4.55;;;;;;;1.02;100.00;95719.13;1026885;28;20022;-69
2023/02/22 01:37:52;;;;;;;7.88;4.70;;;;;;;1.02;100.00;95716.53;1022954;28;20027;-70
2023/02/22 01:38:23;;;;;;;8.35;4.18;;;;;;;1.02;100.00;95708.00;1023035;28;20098;-69
2023/02/22 01:38:53;;;;;;;7.40;4.80;;;;;;;1.01;100.00;95712.38;1026655;28;20015;-69
2023/02/22 01:39:24;;;;;;;10.90;4.90;;;;;;;1.02;100.00;95713.16;1026221;28;20027;-70
2023/02/22 01:39:54;;;;;;;11.32;5.20;;;;;;;0.93;100.00;95699.66;1026873;28;20015;-70
2023/02/22 01:40:28;;;;;;;10.90;4.70;;;;;;;1.01;100.00;95711.59;1027042;28;20022;-70
2023/02/22 01:40:59;;;;;;;7.72;4.56;;;;;;;0.93;100.00;95699.66;1019165;29;20048;-70
2023/02/22 01:41:30;;;;;;;8.02;4.80;;;;;;;0.93;100.00;95702.25;1015013;29;20389;-70
2023/02/22 01:42:00;;;;;;;7.50;4.72;;;;;;;0.96;100.00;95709.59;1015042;29;20023;-71
2023/02/22 01:42:31;;;;;;;8.38;4.47;;;;;;;0.96;100.00;95709.59;1018086;29;20118;-72
2023/02/22 01:43:18;;;;;;;7.15;4.60;;;;;;;0.95;100.00;95710.59;1026858;28;20053;-70
2023/02/22 01:43:48;;;;;;;7.42;4.56;;;;;;;0.94;100.00;95701.28;1026989;28;20562;-69
2023/02/22 01:44:26;;;;;;;14.98;4.80;;;;;;;0.94;100.00;95706.44;1027084;28;20055;-71
2023/02/22 01:45:34;;;;;;;11.50;5.20;;;;;;;0.92;100.00;95708.41;1026832;28;20164;-70
2023/02/22 01:46:24;;;;;;;8.54;4.92;;;;;;;0.89;100.00;95708.81;1031095;28;20006;-69
2023/02/22 01:46:56;;;;;;;7.88;5.03;;;;;;;0.89;100.00;95701.06;1030394;28;20029;-71
2023/02/22 01:47:26;;;;;;;8.84;4.86;;;;;;;0.89;100.00;95708.81;1024463;28;20047;-70
2023/02/22 01:48:15;;;;;;;7.68;4.68;;;;;;;0.83;100.00;95700.09;1029561;28;20023;-71
2023/02/22 01:49:01;;;;;;;12.22;4.70;;;;;;;0.89;100.00;95703.66;1025477;28;20126;-70
2023/02/22 01:49:39;;;;;;;6.62;4.44;;;;;;;0.88;100.00;95709.81;1022803;28;20035;-71
2023/02/22 01:50:09;;;;;;;8.24;4.40;;;;;;;0.84;100.00;95700.88;1026905;28;20026;-70
2023/02/22 01:50:42;;;;;;;9.93;4.93;;;;;;;0.86;100.00;95702.25;1029307;28;20034;-70
2023/02/22 01:51:21;;;;;;;8.84;4.66;;;;;;;0.84;100.00;95706.84;1020015;28;20016;-69
2023/02/22 01:51:52;;;;;;;11.98;4.84;;;;;;;0.83;100.00;95705.25;1022860;29;20766;-71
2023/02/22 01:52:22;;;;;;;8.50;5.20;;;;;;;0.84;100.00;95708.63;1030876;28;20109;-70
2023/02/22 01:52:53;;;;;;;8.57;4.40;;;;;;;0.84;100.00;95706.03;1023360;28;20012;-70
2023/02/22 01:53:32;;;;;;;9.68;4.72;;;;;;;0.78;100.00;95699.13;1018882;29;20016;-70
2023/02/22 01:54:07;;;;;;;9.60;4.72;;;;;;;0.81;100.00;95704.66;1026845;28;20038;-68
2023/02/22 01:54:42;;;;;;;10.34;4.86;;;;;;;0.79;100.00;95698.13;1027512;28;20031;-70
2023/02/22 01:55:12;;;;;;;8.12;4.54;;;;;;;0.81;100.00;95698.72;1030738;28;20632;-69
2023/02/22 01:55:43;;;;;;;11.18;5.45;;;;;;;0.76;100.00;95696.72;1026757;28;20031;-69
2023/02/22 01:56:14;;;;;;;6.70;4.97;;;;;;;0.77;100.00;95703.50;1026409;28;20025;-70
2023/02/22 01:56:49;;;;;;;9.07;4.72;;;;;;;0.79;100.00;95698.91;1030903;28;20019;-70
2023/02/22 01:57:24;;;;;;;8.76;4.92;;;;;;;0.73;100.00;95696.34;1026794;28;20023;-70
2023/02/22 01:57:55;;;;;;;7.46;4.46;;;;;;;0.72;100.00;95690.38;1022532;28;20450;-70
2023/02/22 01:58:26;;;;;;;7.00;5.10;;;;;;;0.77;100.00;95705.25;1018768;29;20035;-70
2023/02/22 01:59:02;;;;;;;9.75;4.57;;;;;;;0.73;100.00;95697.13;1019698;29;20435;-69
2023/02/22 01:59:35;;;;;;;8.78;4.54;;;;;;;0.73;100.00;95696.34;1019033;29;20028;-69
2023/02/22 02:00:11;;;;;;;7.66;4.56;;;;;;;0.62;100.00;95682.25;1026143;28;20467;-70
2023/02/22 02:00:43;;;;;;;10.42;4.86;;;;;;;0.80;100.00;95704.84;1019401;29;20540;-71
2023/02/22 02:01:15;;;;;;;7.18;4.52;;;;;;;0.78;100.00;95696.53;1022773;28;20047;-70
2023/02/22 02:01:45;;;;;;;9.30;4.52;;;;;;;0.82;100.00;95700.31;1026363;28;20039;-71
2023/02/22 02:02:15;;;;;;;7.55;4.30;;;;;;;0.88;100.00;95699.50;1020655;28;20031;-70
2023/02/22 02:02:48;;;;;;;8.15;5.28;;;;;;;0.85;100.00;95695.53;1023000;29;20019;-70
2023/02/22 02:03:21;;;;;;;8.80;5.62;;;;;;;0.89;100.00;95701.06;1023083;28;20522;-70
2023/02/22 02:03:53;;;;;;;7.26;4.88;;;;;;;0.89;100.00;95694.13;1024246;28;20028;-71
2023/02/22 02:04:24;;;;;;;13.00;5.18;;;;;;;0.89;100.00;95698.50;1022715;29;20015;-69
2023/02/22 02:04:55;;;;;;;10.57;5.40;;;;;;;0.84;100.00;95685.38;1020887;28;20036;-70
2023/02/22 02:05:26;;;;;;;8.20;5.08;;;;;;;0.89;100.00;95693.31;1023087;29;20031;-69
2023/02/22 02:05:58;;;;;;;9.12;4.84;;;;;;;0.84;100.00;95690.53;1026908;28;20038;-71
2023/02/22 02:06:31;;;;;;;11.38;5.50;;;;;;;0.83;100.00;95683.78;1023072;29;20043;-69
2023/02/22 02:07:04;;;;;;;8.64;4.86;;;;;;;0.88;100.00;95696.91;1017489;29;20066;-70
2023/02/22 02:07:35;;;;;;;8.58;5.08;;;;;;;0.86;100.00;95696.31;1022750;29;20113;-70
2023/02/22 02:08:35;;;;;;;7.70;4.53;;;;;;;0.83;100.00;95686.38;1026965;28;20026;-69
2023/02/22 02:09:13;;;;;;;10.70;5.20;;;;;;;0.83;100.00;95688.97;1022945;29;20023;-70
2023/02/22 02:09:59;;;;;;;11.52;4.54;;;;;;;0.76;100.00;95683.03;1030671;28;20034;-71
2023/02/22 02:10:29;;;;;;;10.00;4.80;;;;;;;0.79;100.00;95687.78;1024628;28;20066;-70
2023/02/22 02:11:01;;;;;;;13.77;4.78;;;;;;;0.78;100.00;95686.22;1030896;28;20448;-70
2023/02/22 02:11:32;;;;;;;12.08;5.50;;;;;;;0.78;100.00;95691.38;1026823;28;20046;-69
2023/02/22 02:12:04;;;;;;;7.78;4.93;;;;;;;0.77;100.00;95694.94;1023087;29;20412;-70
2023/02/22 02:12:34;;;;;;;8.84;4.36;;;;;;;0.73;100.00;95683.41;1018757;29;20035;-69
2023/02/22 02:13:05;;;;;;;8.00;4.95;;;;;;;0.74;100.00;95682.41;1023357;28;20023;-69
2023/02/22 02:13:35;;;;;;;8.57;4.82;;;;;;;0.73;100.00;95684.22;1022846;28;20019;-69
2023/02/22 02:14:07;;;;;;;9.48;5.05;;;;;;;0.60;100.00;95661.78;1018918;28;20055;-70
2023/02/22 02:14:39;;;;;;;10.66;4.94;;;;;;;0.74;100.00;95685.81;1022807;29;20098;-70
2023/02/22 02:15:16;;;;;;;9.15;4.80;;;;;;;0.75;100.00;95691.78;1024883;28;20113;-70
2023/02/22 02:15:48;;;;;;;8.92;5.18;;;;;;;0.74;100.00;95690.16;1022861;29;20843;-70
2023/02/22 02:16:20;;;;;;;10.06;5.18;;;;;;;0.75;100.00;95689.97;1024286;28;20023;-69
2023/02/22 02:16:52;;;;;;;13.76;5.64;;;;;;;0.72;100.00;95687.00;1021960;28;20035;-69
2023/02/22 02:17:22;;;;;;;9.40;4.70;;;;;;;0.74;100.00;95685.81;1015711;29;20706;-70
2023/02/22 02:17:53;;;;;;;8.57;4.57;;;;;;;0.69;100.00;95685.63;1014943;29;20043;-70
2023/02/22 02:18:24;;;;;;;9.38;5.22;;;;;;;0.74;100.00;95685.81;1019425;29;20023;-69
2023/02/22 02:18:55;;;;;;;10.04;5.10;;;;;;;0.75;100.00;95689.19;1019044;29;20051;-69
2023/02/22 02:19:54;;;;;;;9.23;4.95;;;;;;;0.75;100.00;95691.78;1014687;29;20044;-70
2023/02/22 02:20:37;;;;;;;8.06;4.66;;;;;;;0.74;100.00;95685.00;1022639;28;20035;-69
2023/02/22 02:21:19;;;;;;;9.24;4.56;;;;;;;0.75;100.00;95689.97;1032243;28;20030;-69
2023/02/22 02:21:57;;;;;;;6.98;5.06;;;;;;;0.72;100.00;95687.00;1036259;28;20030;-70
2023/02/22 02:22:37;;;;;;;9.44;4.34;;;;;;;0.70;100.00;95682.84;1038351;28;20615;-69
2023/02/22 02:23:18;;;;;;;8.12;4.36;;;;;;;0.75;100.00;95681.44;1039468;28;20096;-68
2023/02/22 02:24:07;;;;;;;8.26;5.06;;;;;;;0.61;100.00;95662.59;1039372;28;20049;-69
2023/02/22 02:24:59;;;;;;;13.84;5.06;;;;;;;0.75;100.00;95681.44;1034760;28;20022;-69
2023/02/22 02:25:48;;;;;;;8.42;4.88;;;;;;;0.77;100.00;95679.44;1038191;28;20029;-69
2023/02/22 02:26:51;;;;;;;7.34;4.34;;;;;;;0.76;100.00;95681.22;1035037;28;20038;-69
2023/02/22 02:27:23;;;;;;;11.24;4.90;;;;;;;0.79;100.00;95682.63;1031241;28;20022;-68
2023/02/22 02:28:09;;;;;;;10.62;5.06;;;;;;;0.74;100.00;95669.50;1023101;28;20066;-68
2023/02/22 02:29:03;;;;;;;7.72;4.78;;;;;;;0.78;100.00;95686.22;1023318;29;20435;-69
2023/02/22 02:29:45;;;;;;;8.30;5.44;;;;;;;0.77;100.00;95682.84;1025058;28;20533;-69
2023/02/22 02:30:17;;;;;;;12.06;5.80;;;;;;;0.75;100.00;95676.28;1031870;28;20054;-68
2023/02/22 02:30:52;;;;;;;7.76;4.98;;;;;;;0.75;100.00;95676.28;1031416;28;20026;-68
2023/02/22 02:31:38;;;;;;;10.96;5.38;;;;;;;0.74;100.00;95679.84;1032385;28;20058;-68
2023/02/22 02:32:26;;;;;;;8.88;4.92;;;;;;;0.70;100.00;95679.44;1027086;28;20034;-68
2023/02/22 02:33:09;;;;;;;12.16;5.18;;;;;;;0.73;100.00;95675.69;1023162;29;20058;-69
2023/02/22 02:33:52;;;;;;;8.72;4.76;;;;;;;0.72;100.00;95676.69;1023389;28;20099;-69
2023/02/22 02:34:28;;;;;;;10.06;5.82;;;;;;;0.74;100.00;95679.84;1023127;29;20015;-69
2023/02/22 02:35:20;;;;;;;7.88;5.16;;;;;;;0.72;100.00;95681.84;1031210;28;20037;-68
2023/02/22 02:35:57;;;;;;;9.48;5.18;;;;;;;0.70;100.00;95680.28;1023240;29;20035;-69